createdAt,value
2022-09-15T00:01:28.888Z,99851.22
2022-09-15T00:04:14.369Z,99849.53
2022-09-15T00:06:59.713Z,99849.56
2022-09-15T00:09:45.034Z,99856.47
2022-09-15T00:12:29.971Z,99848.66
2022-09-15T00:15:15.299Z,99852.94
2022-09-15T00:18:00.626Z,99847.78
2022-09-15T00:20:46.150Z,99857.28
2022-09-15T00:23:31.251Z,99849.53
2022-09-15T00:26:19.470Z,99849.53
2022-09-15T00:29:05.468Z,99853.84
2022-09-15T00:31:50.832Z,99847.78
2022-09-15T00:34:36.101Z,99843.41
2022-09-15T00:37:21.069Z,99842.50
2022-09-15T00:40:06.538Z,99851.16
2022-09-15T00:42:51.483Z,99849.41
2022-09-15T00:45:36.279Z,99849.47
2022-09-15T00:48:22.772Z,99855.50
2022-09-15T00:51:10.075Z,99852.00
2022-09-15T00:53:56.578Z,99858.91
2022-09-15T00:56:43.929Z,99851.13
2022-09-15T00:59:33.179Z,99843.31
2022-09-15T01:02:24.351Z,99839.91
2022-09-15T01:05:13.589Z,99848.53
2022-09-15T01:08:03.444Z,99850.22
2022-09-15T01:10:48.363Z,99842.44
2022-09-15T01:13:33.191Z,99841.56
2022-09-15T01:16:25.814Z,99839.81
2022-09-15T01:19:20.438Z,99842.47
2022-09-15T01:22:15.565Z,99840.81
2022-09-15T01:25:12.769Z,99842.56
2022-09-15T01:28:12.120Z,99840.88
2022-09-15T01:31:02.809Z,99848.69
2022-09-15T01:33:51.562Z,99861.63
2022-09-15T01:36:52.967Z,99853.88
2022-09-15T01:39:43.450Z,99849.56
2022-09-15T01:42:30.985Z,99845.22
2022-09-15T01:45:23.870Z,99849.59
2022-09-15T01:48:09.384Z,99852.16
2022-09-15T01:50:59.406Z,99849.59
2022-09-15T01:53:46.099Z,99853.03
2022-09-15T01:56:31.314Z,99848.72
2022-09-15T01:59:16.395Z,99848.72
2022-09-15T02:02:09.588Z,99849.59
2022-09-15T02:05:08.009Z,99862.53
2022-09-15T02:08:01.639Z,99863.41
2022-09-15T02:10:53.084Z,99866.88
2022-09-15T02:14:04.326Z,99867.69
2022-09-15T02:16:53.986Z,99863.44
2022-09-15T02:19:43.400Z,99863.41
2022-09-15T02:22:33.257Z,99857.38
2022-09-15T02:25:24.241Z,99855.63
2022-09-15T02:28:11.648Z,99856.50
2022-09-15T02:30:59.256Z,99854.78
2022-09-15T02:33:49.485Z,99858.22
2022-09-15T02:36:34.969Z,99857.34
2022-09-15T02:39:23.013Z,99856.50
2022-09-15T02:42:08.118Z,99848.72
2022-09-15T02:44:53.657Z,99853.91
2022-09-15T02:47:38.843Z,99864.25
2022-09-15T02:50:24.758Z,99865.13
2022-09-15T02:53:09.629Z,99865.94
2022-09-15T02:55:54.431Z,99862.50
2022-09-15T02:58:39.458Z,99859.88
2022-09-15T03:01:28.793Z,99849.47
2022-09-15T03:04:14.020Z,99841.66
2022-09-15T03:06:58.861Z,99849.41
2022-09-15T03:09:44.457Z,99852.91
2022-09-15T03:12:30.001Z,99862.44
2022-09-15T03:15:17.595Z,99856.44
2022-09-15T03:18:02.848Z,99848.66
2022-09-15T03:20:48.078Z,99858.16
2022-09-15T03:23:33.851Z,99866.00
2022-09-15T03:26:19.225Z,99858.19
2022-09-15T03:29:04.716Z,99860.78
2022-09-15T03:31:49.554Z,99862.50
2022-09-15T03:34:35.138Z,99853.00
2022-09-15T03:37:19.999Z,99859.06
2022-09-15T03:40:05.570Z,99862.53
2022-09-15T03:42:50.594Z,99863.38
2022-09-15T03:45:36.093Z,99862.50
2022-09-15T03:48:22.713Z,99863.38
2022-09-15T03:51:09.382Z,99866.81
2022-09-15T03:53:55.618Z,99863.34
2022-09-15T03:56:40.950Z,99859.91
2022-09-15T03:59:25.865Z,99858.22
2022-09-15T04:02:10.950Z,99858.22
2022-09-15T04:04:56.232Z,99856.50
2022-09-15T04:07:41.500Z,99858.19
2022-09-15T04:10:26.780Z,99853.88
2022-09-15T04:13:12.019Z,99856.50
2022-09-15T04:16:05.750Z,99857.31
2022-09-15T04:18:51.979Z,99856.47
2022-09-15T04:21:36.934Z,99851.28
2022-09-15T04:24:22.167Z,99856.50
2022-09-15T04:27:07.137Z,99849.59
2022-09-15T04:29:52.925Z,99857.38
2022-09-15T04:32:37.884Z,99847.84
2022-09-15T04:35:22.839Z,99859.94
2022-09-15T04:38:07.730Z,99846.09
2022-09-15T04:40:52.673Z,99853.81
2022-09-15T04:43:38.210Z,99856.44
2022-09-15T04:46:23.224Z,99857.25
2022-09-15T04:49:08.557Z,99857.22
2022-09-15T04:51:53.575Z,99853.75
2022-09-15T04:54:38.495Z,99858.09
2022-09-15T04:57:23.530Z,99860.66
2022-09-15T05:00:09.097Z,99858.94
2022-09-15T05:02:54.299Z,99858.09
2022-09-15T05:05:40.750Z,99856.44
2022-09-15T05:08:25.622Z,99863.34
2022-09-15T05:11:12.375Z,99862.50
2022-09-15T05:13:57.407Z,99858.97
2022-09-15T05:16:42.374Z,99864.16
2022-09-15T05:19:27.687Z,99871.06
2022-09-15T05:22:12.984Z,99866.75
2022-09-15T05:24:57.943Z,99864.06
2022-09-15T05:27:42.682Z,99865.78
2022-09-15T05:30:44.613Z,99870.94
2022-09-15T05:33:29.685Z,99877.03
2022-09-15T05:36:15.694Z,99870.97
2022-09-15T05:39:01.116Z,99881.41
2022-09-15T05:41:46.026Z,99878.00
2022-09-15T05:44:31.704Z,99878.88
2022-09-15T05:47:16.958Z,99878.81
2022-09-15T05:50:01.744Z,99879.66
2022-09-15T05:52:50.997Z,99882.22
2022-09-15T05:55:39.193Z,99887.38
2022-09-15T05:58:24.783Z,99883.13
2022-09-15T06:01:14.780Z,99888.34
2022-09-15T06:04:00.004Z,99889.16
2022-09-15T06:06:44.813Z,99896.09
2022-09-15T06:09:29.789Z,99890.03
2022-09-15T06:12:14.548Z,99888.25
2022-09-15T06:14:59.563Z,99893.41
2022-09-15T06:17:44.778Z,99889.97
2022-09-15T06:20:30.250Z,99893.34
2022-09-15T06:23:15.728Z,99902.81
2022-09-15T06:26:15.316Z,99903.75
2022-09-15T06:29:02.721Z,99902.84
2022-09-15T06:31:47.622Z,99904.50
2022-09-15T06:34:32.953Z,99908.91
2022-09-15T06:37:17.849Z,99904.63
2022-09-15T06:40:03.243Z,99904.59
2022-09-15T06:42:48.202Z,99911.50
2022-09-15T06:45:32.954Z,99907.13
2022-09-15T06:48:24.810Z,99908.81
2022-09-15T06:51:12.227Z,99914.81
2022-09-15T06:53:57.227Z,99918.22
2022-09-15T06:56:42.967Z,99916.59
2022-09-15T06:59:28.222Z,99926.94
2022-09-15T07:02:13.151Z,99922.59
2022-09-15T07:04:58.609Z,99925.97
2022-09-15T07:07:43.556Z,99918.13
2022-09-15T07:10:28.449Z,99925.00
2022-09-15T07:13:13.386Z,99926.69
2022-09-15T07:16:01.439Z,99933.63
2022-09-15T07:18:48.486Z,99928.47
2022-09-15T07:21:35.119Z,99926.63
2022-09-15T07:24:20.343Z,99930.09
2022-09-15T07:27:05.523Z,99926.69
2022-09-15T07:29:51.529Z,99925.00
2022-09-15T07:32:37.243Z,99942.34
2022-09-15T07:35:23.317Z,99944.00
2022-09-15T07:38:08.771Z,99936.25
2022-09-15T07:40:54.711Z,99932.91
2022-09-15T07:43:40.089Z,99940.56
2022-09-15T07:46:27.345Z,99940.59
2022-09-15T07:49:12.751Z,99937.28
2022-09-15T07:51:57.992Z,99950.25
2022-09-15T07:54:43.637Z,99952.72
2022-09-15T07:57:31.289Z,99952.69
2022-09-15T08:00:17.048Z,99954.38
2022-09-15T08:03:02.706Z,99963.81
2022-09-15T08:05:48.436Z,99958.47
2022-09-15T08:08:35.335Z,99962.03
2022-09-15T08:11:21.688Z,99961.91
2022-09-15T08:14:06.992Z,99966.06
2022-09-15T08:16:52.150Z,99968.63
2022-09-15T08:19:37.171Z,99977.25
2022-09-15T08:22:22.096Z,99981.56
2022-09-15T08:25:08.311Z,99979.09
2022-09-15T08:27:53.624Z,99974.69
2022-09-15T08:30:38.878Z,99976.41
2022-09-15T08:33:24.157Z,99979.75
2022-09-15T08:36:10.657Z,99975.56
2022-09-15T08:38:55.711Z,99985.81
2022-09-15T08:41:46.449Z,99973.75
2022-09-15T08:44:49.789Z,99972.66
2022-09-15T08:47:43.289Z,99970.81
2022-09-15T08:50:40.887Z,99964.63
2022-09-15T08:53:37.727Z,99973.94
2022-09-15T08:56:22.862Z,99958.56
2022-09-15T08:59:13.484Z,99953.16
2022-09-15T09:02:26.490Z,99933.50
2022-09-15T09:05:37.765Z,99954.34
2022-09-15T09:08:48.457Z,99938.16
2022-09-15T09:11:46.327Z,99899.63
2022-09-15T09:15:07.126Z,99912.59
2022-09-15T09:18:20.160Z,99937.91
2022-09-15T09:21:23.337Z,99939.38
2022-09-15T09:24:16.390Z,99920.91
2022-09-15T09:27:02.111Z,99888.66
2022-09-15T09:29:51.990Z,99900.53
2022-09-15T09:32:43.826Z,99921.84
2022-09-15T09:35:31.158Z,99925.72
2022-09-15T09:38:26.627Z,99927.88
2022-09-15T09:41:18.654Z,99894.59
2022-09-15T09:44:10.255Z,99837.13
2022-09-15T09:46:55.228Z,99854.75
2022-09-15T09:49:46.765Z,99885.06
2022-09-15T09:52:38.062Z,99876.56
2022-09-15T09:55:25.572Z,99887.81
2022-09-15T09:58:19.211Z,99872.97
2022-09-15T10:01:13.519Z,99868.28
2022-09-15T10:04:12.241Z,99900.06
2022-09-15T10:06:57.483Z,99853.78
2022-09-15T10:09:52.066Z,99873.88
2022-09-15T10:12:41.348Z,99885.38
2022-09-15T10:15:29.087Z,99881.78
2022-09-15T10:18:37.632Z,99835.84
2022-09-15T10:21:24.967Z,99852.56
2022-09-15T10:24:32.244Z,99894.94
2022-09-15T10:27:30.866Z,99903.16
2022-09-15T10:30:18.418Z,99880.41
2022-09-15T10:33:24.216Z,99885.91
2022-09-15T10:36:16.476Z,99846.59
2022-09-15T10:39:09.566Z,99809.16
2022-09-15T10:42:19.052Z,99842.75
2022-09-15T10:45:16.894Z,99819.75
2022-09-15T10:48:20.031Z,99846.03
2022-09-15T10:51:18.218Z,99836.41
2022-09-15T10:54:12.524Z,99868.13
2022-09-15T10:57:08.792Z,99862.31
2022-09-15T11:00:21.332Z,99824.38
2022-09-15T11:03:38.049Z,99854.44
2022-09-15T11:06:44.618Z,99837.91
2022-09-15T11:09:44.428Z,99838.72
2022-09-15T11:12:59.933Z,99884.66
2022-09-15T11:15:54.199Z,99908.78
2022-09-15T11:19:13.157Z,99896.06
2022-09-15T11:22:08.770Z,99924.19
2022-09-15T11:25:01.173Z,99876.09
2022-09-15T11:27:55.275Z,99890.34
2022-09-15T11:30:48.053Z,99874.50
2022-09-15T11:33:46.054Z,99901.31
2022-09-15T11:36:47.200Z,99870.44
2022-09-15T11:39:46.285Z,99897.19
2022-09-15T11:42:37.554Z,99899.53
2022-09-15T11:45:29.071Z,99942.97
2022-09-15T11:48:42.296Z,99887.09
2022-09-15T11:51:34.618Z,99864.75
2022-09-15T11:54:34.829Z,99902.63
2022-09-15T11:57:26.530Z,99834.22
2022-09-15T12:00:15.773Z,99836.50
2022-09-15T12:03:40.138Z,99833.72
2022-09-15T12:06:34.233Z,99867.69
2022-09-15T12:09:20.897Z,99839.03
2022-09-15T12:12:12.147Z,99898.31
2022-09-15T12:14:57.803Z,99880.13
2022-09-15T12:17:52.078Z,99887.56
2022-09-15T12:21:13.753Z,99818.28
2022-09-15T12:24:11.393Z,99812.09
2022-09-15T12:27:00.220Z,99816.59
2022-09-15T12:29:50.488Z,99858.53
2022-09-15T12:32:35.396Z,99791.09
2022-09-15T12:35:20.633Z,99797.97
2022-09-15T12:38:14.007Z,99795.06
2022-09-15T12:40:59.229Z,99793.59
2022-09-15T12:43:57.387Z,99816.88
2022-09-15T12:46:50.928Z,99828.50
2022-09-15T12:49:43.305Z,99783.34
2022-09-15T12:52:29.286Z,99763.97
2022-09-15T12:55:36.372Z,99809.13
2022-09-15T12:58:28.780Z,99829.38
2022-09-15T13:01:23.236Z,99845.31
2022-09-15T13:04:22.748Z,99871.94
2022-09-15T13:07:16.833Z,99876.88
2022-09-15T13:10:08.185Z,99823.81
2022-09-15T13:13:07.303Z,99866.44
2022-09-15T13:15:55.285Z,99795.59
2022-09-15T13:18:43.881Z,99805.84
2022-09-15T13:21:30.939Z,99840.25
2022-09-15T13:24:22.561Z,99841.53
2022-09-15T13:27:08.383Z,99871.97
2022-09-15T13:30:22.927Z,99861.66
2022-09-15T13:40:48.782Z,99838.88
2022-09-15T13:43:53.920Z,99834.69
2022-09-15T13:46:45.169Z,99849.13
2022-09-15T13:50:05.910Z,99908.50
2022-09-15T13:53:06.554Z,99893.31
2022-09-15T13:55:51.998Z,99807.66
2022-09-15T13:59:01.691Z,99871.25
2022-09-15T14:01:47.063Z,99852.13
2022-09-15T14:04:32.280Z,99837.69
2022-09-15T14:07:25.000Z,99864.28
2022-09-15T14:10:25.323Z,99862.81
2022-09-15T14:13:14.047Z,99860.91
2022-09-15T14:16:04.100Z,99869.88
2022-09-15T14:18:49.878Z,99875.75
2022-09-15T14:21:46.349Z,99895.03
2022-09-15T14:24:32.155Z,99877.72
2022-09-15T14:27:23.990Z,99885.56
2022-09-15T14:30:16.604Z,99881.25
2022-09-15T14:33:02.566Z,99897.88
2022-09-15T14:35:47.995Z,99887.94
2022-09-15T14:38:33.413Z,99904.25
2022-09-15T14:41:19.147Z,99893.84
2022-09-15T14:47:42.064Z,99905.56
2022-09-15T14:50:32.546Z,99918.41
2022-09-15T14:53:23.925Z,99927.72
2022-09-15T14:56:15.303Z,99885.91
2022-09-15T14:59:05.258Z,99931.38
2022-09-15T15:02:04.407Z,99925.16
2022-09-15T15:04:58.468Z,99948.38
2022-09-15T15:07:44.380Z,99977.50
2022-09-15T15:10:34.904Z,99976.50
2022-09-15T15:13:21.739Z,99976.91
2022-09-15T15:16:18.790Z,99972.72
2022-09-15T15:19:04.298Z,99978.53
2022-09-15T15:21:49.601Z,99947.19
2022-09-15T15:24:34.369Z,99964.78
2022-09-15T15:27:34.592Z,99952.50
2022-09-15T15:30:23.134Z,99935.13
2022-09-15T15:33:25.057Z,99932.47
2022-09-15T15:36:10.822Z,99932.44
2022-09-15T15:38:58.036Z,99921.47
2022-09-15T15:41:43.384Z,99943.13
2022-09-15T15:44:30.059Z,99929.19
2022-09-15T15:47:14.853Z,99947.09
2022-09-15T15:50:13.198Z,99932.97
2022-09-15T15:53:00.301Z,99944.59
2022-09-15T15:55:45.773Z,99946.47
2022-09-15T15:58:31.225Z,99962.41
2022-09-15T16:01:16.375Z,99965.19
2022-09-15T16:04:01.883Z,99975.00
2022-09-15T16:06:47.768Z,99979.19
2022-09-15T16:09:39.176Z,99960.31
2022-09-15T16:12:24.398Z,99929.78
2022-09-15T16:15:11.874Z,99928.97
2022-09-15T16:17:56.876Z,99955.88
2022-09-15T16:20:42.560Z,99957.78
2022-09-15T16:23:27.724Z,99949.81
2022-09-15T16:26:21.798Z,99963.72
2022-09-15T16:29:06.889Z,99956.56
2022-09-15T16:31:52.244Z,99951.09
2022-09-15T16:34:37.620Z,99955.81
2022-09-15T16:37:22.884Z,99979.44
2022-09-15T16:40:08.286Z,99937.63
2022-09-15T16:42:53.530Z,99899.16
2022-09-15T16:45:40.875Z,99894.53
2022-09-15T16:48:26.426Z,99890.88
2022-09-15T16:51:25.177Z,99880.44
2022-09-15T16:54:18.003Z,99901.88
2022-09-15T16:57:03.407Z,99904.22
2022-09-15T16:59:48.536Z,99909.38
2022-09-15T17:02:33.649Z,99902.31
2022-09-15T17:05:32.515Z,99902.31
2022-09-15T17:08:20.382Z,99911.94
2022-09-15T17:11:06.312Z,99908.69
2022-09-15T17:13:51.643Z,99918.34
2022-09-15T17:16:37.146Z,99913.13
2022-09-15T17:19:22.244Z,99937.59
2022-09-15T17:22:08.355Z,99923.09
2022-09-15T17:24:53.778Z,99938.72
2022-09-15T17:27:38.782Z,99936.22
2022-09-15T17:30:27.606Z,99935.56
2022-09-15T17:33:14.466Z,99927.81
2022-09-15T17:36:00.380Z,99919.25
2022-09-15T17:38:45.483Z,99923.84
2022-09-15T17:41:31.636Z,99928.22
2022-09-15T17:44:16.453Z,99935.25
2022-09-15T17:47:01.391Z,99951.34
2022-09-15T17:49:46.397Z,99950.34
2022-09-15T17:52:31.201Z,99940.88
2022-09-15T17:55:23.038Z,99946.91
2022-09-15T17:58:09.127Z,99959.91
2022-09-15T18:00:54.807Z,99969.69
2022-09-15T18:03:39.805Z,99985.44
2022-09-15T18:06:24.817Z,99992.41
2022-09-15T18:09:09.757Z,99994.34
2022-09-15T18:11:54.885Z,100025.22
2022-09-15T18:14:40.090Z,100034.69
2022-09-15T18:17:24.962Z,100033.84
2022-09-15T18:20:14.228Z,100036.28
2022-09-15T18:22:59.908Z,100021.63
2022-09-15T18:25:46.270Z,100030.59
2022-09-15T18:28:31.423Z,100028.88
2022-09-15T18:31:16.281Z,100043.69
2022-09-15T18:34:01.608Z,100042.72
2022-09-15T18:36:46.484Z,100030.59
2022-09-15T18:39:31.978Z,100045.44
2022-09-15T18:42:16.916Z,100036.63
2022-09-15T18:45:02.264Z,100047.19
2022-09-15T18:47:49.212Z,100044.53
2022-09-15T18:50:34.433Z,100050.66
2022-09-15T18:53:19.244Z,100054.94
2022-09-15T18:56:15.102Z,100049.75
2022-09-15T18:59:00.363Z,100059.34
2022-09-15T19:01:45.516Z,100054.09
2022-09-15T19:04:32.751Z,100060.22
2022-09-15T19:07:20.273Z,100069.75
2022-09-15T19:10:07.824Z,100080.28
2022-09-15T19:12:53.835Z,100075.94
2022-09-15T19:15:39.945Z,100084.63
2022-09-15T19:18:25.030Z,100089.88
2022-09-15T19:21:12.088Z,100089.06
2022-09-15T19:23:59.325Z,100082.03
2022-09-15T19:26:45.196Z,100094.25
2022-09-15T19:29:30.334Z,100087.44
2022-09-15T19:32:17.384Z,100091.78
2022-09-15T19:35:02.493Z,100076.13
2022-09-15T19:37:47.540Z,100070.97
2022-09-15T19:40:32.926Z,100085.72
2022-09-15T19:43:17.786Z,100093.59
2022-09-15T19:46:03.173Z,100078.81
2022-09-15T19:48:50.196Z,100092.66
2022-09-15T19:51:35.739Z,100077.97
2022-09-15T19:54:26.486Z,100088.38
2022-09-15T19:57:11.388Z,100077.03
2022-09-15T19:59:56.442Z,100090.97
2022-09-15T20:02:42.041Z,100097.94
2022-09-15T20:05:27.329Z,100109.31
2022-09-15T20:08:12.234Z,100102.34
2022-09-15T20:10:57.198Z,100117.19
2022-09-15T20:13:42.778Z,100127.56
2022-09-15T20:16:28.602Z,100112.03
2022-09-15T20:19:13.966Z,100114.63
2022-09-15T20:21:59.320Z,100121.59
2022-09-15T20:24:44.509Z,100125.09
2022-09-15T20:27:29.483Z,100119.00
2022-09-15T20:30:14.925Z,100114.66
2022-09-15T20:33:00.201Z,100118.16
2022-09-15T20:35:45.152Z,100126.03
2022-09-15T20:38:31.990Z,100139.09
2022-09-15T20:41:19.254Z,100135.63
2022-09-15T20:44:04.544Z,100139.09
2022-09-15T20:46:49.575Z,100146.88
2022-09-15T20:49:34.483Z,100148.63
2022-09-15T20:52:19.506Z,100138.25
2022-09-15T20:55:04.565Z,100140.88
2022-09-15T20:57:49.627Z,100135.66
2022-09-15T21:00:34.476Z,100128.72
2022-09-15T21:03:19.477Z,100130.47
2022-09-15T21:06:14.495Z,100141.69
2022-09-15T21:09:00.226Z,100140.00
2022-09-15T21:11:46.143Z,100143.41
2022-09-15T21:14:33.240Z,100144.31
2022-09-15T21:17:18.189Z,100144.31
2022-09-15T21:20:03.639Z,100146.91
2022-09-15T21:22:53.634Z,100141.72
2022-09-15T21:25:38.747Z,100134.78
2022-09-15T21:28:23.788Z,100141.69
2022-09-15T21:31:11.684Z,100127.88
2022-09-15T21:33:58.138Z,100127.00
2022-09-15T21:36:44.373Z,100127.00
2022-09-15T21:39:29.359Z,100121.78
2022-09-15T21:42:14.386Z,100132.19
2022-09-15T21:44:59.479Z,100129.59
2022-09-15T21:47:44.653Z,100142.56
2022-09-15T21:50:29.636Z,100143.44
2022-09-15T21:53:14.992Z,100148.63
2022-09-15T21:56:01.593Z,100160.75
2022-09-15T21:58:46.952Z,100150.34
2022-09-15T22:01:32.916Z,100154.69
2022-09-15T22:04:17.751Z,100169.34
2022-09-15T22:07:02.815Z,100159.84
2022-09-15T22:09:48.193Z,100173.69
2022-09-15T22:12:33.238Z,100162.44
2022-09-15T22:15:18.190Z,100165.03
2022-09-15T22:18:03.907Z,100169.34
2022-09-15T22:20:49.140Z,100170.19
2022-09-15T22:23:34.450Z,100171.91
2022-09-15T22:26:22.261Z,100171.91
2022-09-15T22:29:07.456Z,100179.72
2022-09-15T22:31:52.706Z,100176.25
2022-09-15T22:34:38.136Z,100176.25
2022-09-15T22:37:22.903Z,100178.84
2022-09-15T22:40:08.351Z,100172.78
2022-09-15T22:42:53.719Z,100169.31
2022-09-15T22:45:38.746Z,100177.09
2022-09-15T22:48:24.224Z,100171.91
2022-09-15T22:51:09.978Z,100172.78
2022-09-15T22:53:55.408Z,100177.09
2022-09-15T22:56:40.325Z,100171.91
2022-09-15T22:59:25.733Z,100166.72
2022-09-15T23:02:10.816Z,100179.69
2022-09-15T23:04:56.124Z,100170.19
2022-09-15T23:07:41.159Z,100177.06
2022-09-15T23:10:26.512Z,100179.66
2022-09-15T23:13:11.847Z,100181.38
2022-09-15T23:15:56.838Z,100175.34
2022-09-15T23:18:42.237Z,100165.00
2022-09-15T23:21:27.488Z,100171.88
2022-09-15T23:24:12.605Z,100159.81
2022-09-15T23:26:58.234Z,100162.44
2022-09-15T23:29:43.196Z,100158.97
2022-09-15T23:32:28.111Z,100158.09
2022-09-15T23:35:12.941Z,100162.41
2022-09-15T23:37:59.136Z,100158.97
2022-09-15T23:40:45.063Z,100161.53
2022-09-15T23:43:30.209Z,100157.22
2022-09-15T23:46:16.599Z,100160.69
2022-09-15T23:49:01.626Z,100165.00
2022-09-15T23:51:46.490Z,100168.47
2022-09-15T23:54:31.534Z,100170.22
2022-09-15T23:57:16.949Z,100163.28
